EPLL/LCJ METAR and TAF weather

Enter ICAO airport designator
Station Type Date Time Source
EPLL METAR 2019/10/15 09:30 UTC NOAA

EPLL 150930Z 13006KT 080V170 CAVOK 19/13 Q1012


Station Type Date Time Source
EPLL Decoded METAR 2019/10/15 09:30 UTC NOAA

Station name not available
Oct 15, 2019 - 05:30 AM EDT / 2019.10.15 0930 UTC
Wind: from the SE (130 degrees) at 7 MPH (6 KT) (direction variable):0
Visibility: greater than 7 mile(s):0
Temperature: 66 F (19 C)
Dew Point: 55 F (13 C)
Relative Humidity: 68%
Pressure (altimeter): 29.88 in. Hg (1012 hPa)
ob: EPLL 150930Z 13006KT 080V170 CAVOK 19/13 Q1012
cycle: 9

Station Type Date Time Source
EPLL TAF 2019/10/15 06:00 UTC NOAA

TAF EPLL 150530Z 1506/1606 09002KT CAVOK
BECMG 1506/1509 14012KT
BECMG 1602/1604 20006KT

Example: see airport list